Time;durP1;ratioP1;P1;durP2;ratioP2;P2;SDS_P1;SDS_P2;PMS_P1;PMS_P2;Temp;Humidity;BMP_temperature;BMP_pressure;BME280_temperature;BME280_humidity;BME280_pressure;Samples;Min_cycle;Max_cycle;Signal;HPM_P1;HPM_P2
2023/10/18 00:01:24;;;;;;;12.88;11.57;;;;;;;5.52;100.00;101090.03;5001222;28;20049;-72
2023/10/18 00:03:53;;;;;;;11.98;10.77;;;;;;;5.50;100.00;101083.91;5003474;28;20061;-72
2023/10/18 00:06:21;;;;;;;12.93;11.75;;;;;;;5.49;100.00;101085.69;5001517;28;20040;-72
2023/10/18 00:08:50;;;;;;;12.75;11.18;;;;;;;5.47;100.00;101081.34;5004047;28;20338;-72
2023/10/18 00:11:24;;;;;;;13.48;12.13;;;;;;;5.45;100.00;101081.41;5001642;28;20026;-72
2023/10/18 00:13:52;;;;;;;12.60;11.30;;;;;;;5.38;100.00;101073.69;5004000;28;20164;-72
2023/10/18 00:16:18;;;;;;;13.25;11.95;;;;;;;5.31;100.00;101069.44;4999717;28;20080;-72
2023/10/18 00:18:43;;;;;;;14.60;12.13;;;;;;;5.35;100.00;101073.75;5001897;28;20061;-70
2023/10/18 00:21:09;;;;;;;13.63;12.25;;;;;;;5.34;100.00;101077.31;5003087;28;20037;-71
2023/10/18 00:23:34;;;;;;;14.27;12.88;;;;;;;5.26;100.00;101069.56;5003315;28;20026;-70
2023/10/18 00:26:07;;;;;;;14.10;12.48;;;;;;;5.33;100.00;101072.94;5002811;28;20087;-70
2023/10/18 00:28:34;;;;;;;14.75;13.20;;;;;;;5.32;100.00;101072.06;4999509;28;20047;-71
2023/10/18 00:31:20;;;;;;;14.52;13.23;;;;;;;5.28;100.00;101070.41;5002331;28;20044;-71
2023/10/18 00:33:46;;;;;;;15.82;13.13;;;;;;;5.23;100.00;101074.94;5002863;28;20447;-71
2023/10/18 00:36:13;;;;;;;14.85;12.20;;;;;;;5.19;100.00;101066.25;5002495;28;20053;-70
2023/10/18 00:38:40;;;;;;;15.27;13.65;;;;;;;5.22;100.00;101068.81;5002558;28;20597;-72
2023/10/18 00:41:09;;;;;;;15.65;14.05;;;;;;;5.23;100.00;101069.69;5001106;28;20030;-71
2023/10/18 00:43:36;;;;;;;14.40;12.90;;;;;;;5.19;100.00;101070.66;4972389;28;20259;-71
2023/10/18 00:46:06;;;;;;;15.30;13.70;;;;;;;5.17;100.00;101065.41;5000781;28;20072;-71
2023/10/18 00:48:33;;;;;;;16.35;13.73;;;;;;;5.13;100.00;101068.16;4998631;28;20034;-71
2023/10/18 00:50:59;;;;;;;15.55;13.95;;;;;;;5.14;100.00;101075.16;4994275;28;20515;-70
2023/10/18 00:53:26;;;;;;;15.40;13.80;;;;;;;5.14;100.00;101067.25;4994768;28;20221;-72
2023/10/18 00:55:57;;;;;;;15.80;14.20;;;;;;;5.13;100.00;101062.88;4997418;28;20025;-71
2023/10/18 00:58:23;;;;;;;15.27;13.68;;;;;;;5.09;100.00;101059.44;5000143;28;20140;-71
2023/10/18 01:00:50;;;;;;;16.08;14.48;;;;;;;5.06;100.00;101045.44;4992508;28;20354;-72
2023/10/18 01:03:28;;;;;;;15.38;13.77;;;;;;;5.04;100.00;101042.00;4997903;28;20052;-72
2023/10/18 01:06:27;;;;;;;15.35;13.85;;;;;;;5.03;100.00;101033.22;4996864;28;20041;-72
2023/10/18 01:08:53;;;;;;;15.38;13.98;;;;;;;4.97;100.00;101028.97;4998662;28;20030;-72
2023/10/18 01:11:23;;;;;;;16.05;14.32;;;;;;;4.96;100.00;101031.63;5001538;28;20037;-71
2023/10/18 01:13:48;;;;;;;16.63;14.55;;;;;;;4.92;100.00;101027.34;5003184;28;20034;-71
2023/10/18 01:16:20;;;;;;;15.95;14.30;;;;;;;4.90;100.00;101021.25;5000059;28;20400;-71
2023/10/18 01:18:47;;;;;;;15.57;14.07;;;;;;;4.87;100.00;101018.69;4997629;28;20037;-70
2023/10/18 01:21:19;;;;;;;18.55;14.52;;;;;;;4.89;100.00;101009.84;5000440;28;20224;-71
2023/10/18 01:23:50;;;;;;;15.65;14.05;;;;;;;4.88;100.00;101008.09;5002096;28;20025;-71
2023/10/18 01:26:21;;;;;;;15.32;13.73;;;;;;;4.87;100.00;101006.34;5001849;28;20034;-72
2023/10/18 01:28:47;;;;;;;18.45;14.45;;;;;;;4.80;100.00;100999.50;4999152;28;20030;-72
2023/10/18 01:31:12;;;;;;;15.55;13.98;;;;;;;4.79;100.00;100995.13;5001997;28;20076;-73
2023/10/18 01:33:50;;;;;;;14.65;13.20;;;;;;;4.76;100.00;100995.19;4999761;28;20044;-71
2023/10/18 01:36:17;;;;;;;14.80;13.40;;;;;;;4.76;100.00;100992.56;4992956;28;20053;-73
2023/10/18 01:38:48;;;;;;;14.05;12.75;;;;;;;4.72;100.00;100989.16;4985093;28;20484;-73
2023/10/18 01:41:37;;;;;;;16.20;13.50;;;;;;;4.73;100.00;100976.84;4995323;28;20129;-73
2023/10/18 01:44:10;;;;;;;16.60;13.85;;;;;;;4.75;100.00;100975.00;4997170;28;20103;-72
2023/10/18 01:46:39;;;;;;;14.20;12.80;;;;;;;4.74;100.00;100975.91;4990615;28;20054;-71
2023/10/18 01:49:06;;;;;;;13.65;12.25;;;;;;;4.74;100.00;100966.25;5000400;28;20344;-72
2023/10/18 01:51:32;;;;;;;14.80;12.63;;;;;;;4.69;100.00;100957.59;4998414;28;20025;-72
2023/10/18 01:54:12;;;;;;;14.18;12.80;;;;;;;4.66;100.00;100956.78;4975334;28;20309;-72
2023/10/18 01:56:38;;;;;;;13.15;11.68;;;;;;;4.69;100.00;100956.72;4998320;28;20228;-71
2023/10/18 01:59:08;;;;;;;13.40;12.07;;;;;;;4.65;100.00;100947.16;5001400;28;20030;-71
2023/10/18 02:01:35;;;;;;;13.55;12.15;;;;;;;4.67;100.00;100958.50;4998627;28;20034;-71
2023/10/18 02:04:02;;;;;;;13.25;11.85;;;;;;;4.68;100.00;100947.06;4995465;28;20026;-73
2023/10/18 02:06:28;;;;;;;13.63;12.23;;;;;;;4.60;100.00;100935.81;4998282;28;20034;-71
2023/10/18 02:08:53;;;;;;;13.18;11.80;;;;;;;4.66;100.00;100944.47;5000602;28;20791;-71
2023/10/18 02:11:19;;;;;;;13.63;12.02;;;;;;;4.57;100.00;100928.88;5001011;28;20459;-73
2023/10/18 02:13:44;;;;;;;13.70;12.27;;;;;;;4.58;100.00;100933.25;5000408;28;20567;-73
2023/10/18 02:16:14;;;;;;;12.88;11.57;;;;;;;4.62;100.00;100939.31;4999161;28;20468;-70
2023/10/18 02:18:39;;;;;;;13.38;11.98;;;;;;;4.63;100.00;100935.75;4997620;28;20030;-71
2023/10/18 02:21:05;;;;;;;13.45;12.10;;;;;;;4.63;100.00;100928.72;4991160;28;20024;-73
2023/10/18 02:23:37;;;;;;;12.88;11.57;;;;;;;4.58;100.00;100930.59;4999223;28;20026;-70
2023/10/18 02:26:22;;;;;;;12.32;11.02;;;;;;;4.54;100.00;100921.03;4999758;28;20025;-71
2023/10/18 02:28:51;;;;;;;12.90;11.60;;;;;;;4.58;100.00;100935.88;5000404;28;20407;-72
2023/10/18 02:31:21;;;;;;;12.10;10.88;;;;;;;4.58;100.00;100929.75;4981824;28;20514;-70
2023/10/18 02:33:48;;;;;;;12.25;10.65;;;;;;;4.55;100.00;100925.41;4984486;28;20507;-72
2023/10/18 02:36:21;;;;;;;12.70;11.32;;;;;;;4.56;100.00;100924.53;5001830;28;20115;-73
2023/10/18 02:38:46;;;;;;;12.90;11.57;;;;;;;4.56;100.00;100926.28;5004889;28;20100;-71
2023/10/18 02:41:31;;;;;;;12.30;11.00;;;;;;;4.56;100.00;100923.66;5004831;28;20133;-72
2023/10/18 02:43:59;;;;;;;12.32;10.90;;;;;;;4.55;100.00;100911.34;5003623;28;20034;-71
2023/10/18 02:46:29;;;;;;;11.52;10.27;;;;;;;4.55;100.00;100904.31;5002487;28;20109;-70
2023/10/18 02:48:56;;;;;;;12.70;11.13;;;;;;;4.56;100.00;100915.75;4995960;28;20323;-71
2023/10/18 02:51:24;;;;;;;13.10;11.35;;;;;;;4.54;100.00;100912.28;5001664;28;20099;-71
2023/10/18 02:53:51;;;;;;;11.00;9.90;;;;;;;4.49;100.00;100896.56;4999888;28;20807;-72
2023/10/18 02:56:33;;;;;;;13.00;11.65;;;;;;;4.52;100.00;100904.41;5002953;28;20113;-70
2023/10/18 02:59:06;;;;;;;12.23;11.02;;;;;;;4.57;100.00;100899.03;4993602;28;20034;-70
2023/10/18 03:01:40;;;;;;;13.75;11.38;;;;;;;4.58;100.00;100898.97;4999760;28;20029;-71
2023/10/18 03:04:14;;;;;;;12.68;11.38;;;;;;;4.50;100.00;100890.41;4999142;28;20045;-70
2023/10/18 03:06:40;;;;;;;12.90;11.60;;;;;;;4.49;100.00;100884.25;4996470;28;20049;-73
2023/10/18 03:09:05;;;;;;;12.90;11.48;;;;;;;4.55;100.00;100869.19;5002058;28;20065;-71
2023/10/18 03:11:33;;;;;;;12.25;11.15;;;;;;;4.55;100.00;100870.03;4978574;28;20036;-71
2023/10/18 03:14:01;;;;;;;13.65;12.25;;;;;;;4.59;100.00;100873.47;4998259;28;20090;-72
2023/10/18 03:18:59;;;;;;;12.52;11.23;;;;;;;4.65;100.00;100875.97;5001205;28;20034;-73
2023/10/18 03:21:26;;;;;;;12.57;11.38;;;;;;;4.63;100.00;100864.59;4985053;28;20088;-73
2023/10/18 03:23:51;;;;;;;13.23;11.43;;;;;;;4.58;100.00;100869.97;4995164;28;20045;-72
2023/10/18 03:26:34;;;;;;;13.75;11.75;;;;;;;4.52;100.00;100866.66;4998566;28;20119;-71
2023/10/18 03:29:11;;;;;;;12.57;11.32;;;;;;;4.56;100.00;100861.25;5001716;28;20022;-71
2023/10/18 03:31:40;;;;;;;13.75;12.35;;;;;;;4.56;100.00;100863.91;5003853;28;20053;-72
2023/10/18 03:34:09;;;;;;;13.18;11.65;;;;;;;4.53;100.00;100858.69;5001439;28;20388;-72
2023/10/18 03:36:48;;;;;;;13.25;11.80;;;;;;;4.47;100.00;100851.81;4997857;28;20036;-71
2023/10/18 03:39:17;;;;;;;13.02;11.73;;;;;;;4.54;100.00;100855.16;5001659;28;20022;-71
2023/10/18 03:41:42;;;;;;;13.02;11.68;;;;;;;4.55;100.00;100845.47;5001862;28;20400;-71
2023/10/18 03:44:08;;;;;;;12.50;11.20;;;;;;;4.58;100.00;100837.47;5001052;28;20281;-70
2023/10/18 03:46:47;;;;;;;12.63;11.38;;;;;;;4.56;100.00;100826.13;4987567;28;20485;-71
2023/10/18 03:49:37;;;;;;;12.98;11.50;;;;;;;4.58;100.00;100826.94;4980668;28;20029;-71
2023/10/18 03:57:28;;;;;;;12.63;11.35;;;;;;;4.59;100.00;100823.38;4982561;28;20038;-75
2023/10/18 03:59:59;;;;;;;14.07;11.80;;;;;;;4.59;100.00;100818.97;4981325;28;20034;-70
2023/10/18 04:04:57;;;;;;;12.85;11.65;;;;;;;4.63;100.00;100810.09;4973920;28;20079;-70
2023/10/18 04:07:24;;;;;;;13.05;11.75;;;;;;;4.62;100.00;100811.00;4981254;28;20548;-71
2023/10/18 04:12:27;;;;;;;12.90;11.48;;;;;;;4.65;100.00;100810.06;4982525;28;20125;-70
2023/10/18 04:14:56;;;;;;;12.40;11.07;;;;;;;4.66;100.00;100806.50;4981671;28;20600;-70
2023/10/18 04:18:25;;;;;;;12.77;11.05;;;;;;;4.68;100.00;100796.78;4981558;28;20073;-71
2023/10/18 04:22:46;;;;;;;12.30;11.10;;;;;;;4.68;100.00;100788.88;4984263;28;20037;-70
2023/10/18 04:25:17;;;;;;;14.88;11.55;;;;;;;4.66;100.00;100788.06;4976821;28;20046;-72
2023/10/18 04:27:44;;;;;;;13.43;10.90;;;;;;;4.62;100.00;100773.22;4982173;28;20116;-72
2023/10/18 04:30:15;;;;;;;12.07;10.98;;;;;;;4.67;100.00;100777.47;4979485;28;20504;-70
2023/10/18 04:32:42;;;;;;;13.15;11.45;;;;;;;4.67;100.00;100772.19;4967529;28;20054;-71
2023/10/18 04:35:15;;;;;;;13.90;11.77;;;;;;;4.63;100.00;100765.25;4981494;28;20031;-71
2023/10/18 04:37:40;;;;;;;12.75;10.77;;;;;;;4.65;100.00;100773.16;4984194;28;20193;-71
2023/10/18 04:40:16;;;;;;;13.10;11.73;;;;;;;4.68;100.00;100765.13;4981757;28;20040;-72
2023/10/18 04:42:41;;;;;;;13.60;10.95;;;;;;;4.64;100.00;100760.84;4980537;28;20089;-73
2023/10/18 04:45:16;;;;;;;14.57;11.18;;;;;;;4.68;100.00;100768.66;4983785;28;20050;-71
2023/10/18 04:47:42;;;;;;;12.93;11.63;;;;;;;4.68;100.00;100773.03;4993636;28;20504;-71
2023/10/18 04:50:11;;;;;;;12.27;10.60;;;;;;;4.70;100.00;100773.88;5001970;28;20161;-70
2023/10/18 04:52:40;;;;;;;12.68;10.93;;;;;;;4.70;100.00;100769.47;4986850;28;20508;-71
2023/10/18 04:55:15;;;;;;;12.32;11.10;;;;;;;4.67;100.00;100766.91;4986769;28;20400;-70
2023/10/18 04:57:41;;;;;;;12.23;10.75;;;;;;;4.67;100.00;100760.78;5002170;28;20026;-70
2023/10/18 05:02:52;;;;;;;12.35;10.93;;;;;;;4.64;100.00;100737.13;5001019;28;20041;-71
2023/10/18 05:05:19;;;;;;;11.73;10.52;;;;;;;4.66;100.00;100740.59;5000916;28;20033;-71
2023/10/18 05:07:48;;;;;;;13.00;11.65;;;;;;;4.63;100.00;100732.78;5001213;28;20026;-71
2023/10/18 05:10:14;;;;;;;13.38;11.20;;;;;;;4.65;100.00;100734.47;5001713;28;20120;-71
2023/10/18 05:12:53;;;;;;;13.52;11.38;;;;;;;4.58;100.00;100721.50;5000965;28;20113;-71
2023/10/18 05:15:22;;;;;;;13.45;12.02;;;;;;;4.63;100.00;100732.78;5000783;28;20029;-72
2023/10/18 05:17:57;;;;;;;14.43;11.43;;;;;;;4.64;100.00;100722.19;4998819;28;20397;-70
2023/10/18 05:20:24;;;;;;;12.80;11.48;;;;;;;4.60;100.00;100717.03;4980290;28;20295;-72
2023/10/18 05:22:50;;;;;;;17.35;12.02;;;;;;;4.61;100.00;100726.69;5001527;28;20045;-70
2023/10/18 05:27:46;;;;;;;14.13;11.88;;;;;;;4.63;100.00;100716.94;5003081;28;20030;-73
2023/10/18 05:30:16;;;;;;;13.73;12.40;;;;;;;4.63;100.00;100719.59;5001323;28;20321;-72
2023/10/18 05:32:49;;;;;;;13.30;11.93;;;;;;;4.66;100.00;100727.41;4989063;28;20504;-70
2023/10/18 05:37:59;;;;;;;14.27;12.15;;;;;;;4.62;100.00;100721.38;4994496;28;19926;-73
2023/10/18 05:43:06;;;;;;;13.93;12.23;;;;;;;4.61;100.00;100711.72;5001199;28;20120;-71
2023/10/18 05:45:32;;;;;;;14.07;12.68;;;;;;;4.62;100.00;100710.81;5000116;28;20488;-71
2023/10/18 05:48:01;;;;;;;14.73;11.80;;;;;;;4.64;100.00;100716.94;5000202;28;20263;-71
2023/10/18 05:50:27;;;;;;;15.90;12.95;;;;;;;4.67;100.00;100714.19;4992600;28;20038;-71
2023/10/18 05:52:57;;;;;;;16.30;12.30;;;;;;;4.62;100.00;100705.53;4993477;28;20045;-72
2023/10/18 05:55:23;;;;;;;15.55;12.80;;;;;;;4.65;100.00;100708.09;4995834;28;20060;-71
2023/10/18 05:57:54;;;;;;;14.98;12.85;;;;;;;4.65;100.00;100699.34;5000409;28;20030;-71
2023/10/18 06:00:20;;;;;;;15.32;11.85;;;;;;;4.66;100.00;100698.41;4995363;28;20034;-72
2023/10/18 06:02:45;;;;;;;14.35;12.20;;;;;;;4.62;100.00;100688.88;4999129;28;20033;-71
2023/10/18 06:05:12;;;;;;;13.80;12.38;;;;;;;4.67;100.00;100690.44;4996639;28;20511;-70
2023/10/18 06:07:37;;;;;;;13.75;11.82;;;;;;;4.64;100.00;100693.19;5000438;28;20523;-71
2023/10/18 06:10:38;;;;;;;14.13;12.38;;;;;;;4.64;100.00;100693.19;4993023;28;20041;-71
2023/10/18 06:13:05;;;;;;;14.90;12.68;;;;;;;4.55;100.00;100674.13;4995371;28;20464;-71
2023/10/18 06:15:34;;;;;;;15.38;12.45;;;;;;;4.63;100.00;100687.94;5002642;28;20572;-70
2023/10/18 06:18:00;;;;;;;15.52;12.80;;;;;;;4.62;100.00;100680.97;5001791;28;20026;-71
2023/10/18 06:20:28;;;;;;;17.30;12.82;;;;;;;4.61;100.00;100682.75;5002059;28;20037;-71
2023/10/18 06:23:08;;;;;;;14.68;13.02;;;;;;;4.63;100.00;100685.31;5002356;28;20115;-70
2023/10/18 06:25:37;;;;;;;14.73;11.93;;;;;;;4.61;100.00;100660.78;5001288;28;20045;-71
2023/10/18 06:28:07;;;;;;;13.52;11.60;;;;;;;4.65;100.00;100670.34;5004135;28;20029;-71
2023/10/18 06:30:42;;;;;;;14.25;11.95;;;;;;;4.65;100.00;100663.28;5000865;28;20117;-71
2023/10/18 06:33:12;;;;;;;15.30;12.20;;;;;;;4.70;100.00;100665.78;4982489;28;20320;-71
2023/10/18 06:35:54;;;;;;;13.80;11.70;;;;;;;4.71;100.00;100664.88;4997348;28;20029;-71
2023/10/18 06:38:23;;;;;;;12.85;11.30;;;;;;;4.75;100.00;100655.97;5001002;28;20030;-72
2023/10/18 06:40:53;;;;;;;14.32;11.75;;;;;;;4.75;100.00;100648.06;5004961;28;20157;-70
2023/10/18 06:43:21;;;;;;;13.80;12.02;;;;;;;4.81;100.00;100655.78;4992272;28;20041;-71
2023/10/18 06:45:48;;;;;;;13.20;11.55;;;;;;;4.86;100.00;100656.50;4999796;28;20032;-71
2023/10/18 06:48:17;;;;;;;15.68;11.98;;;;;;;4.90;100.00;100652.00;4987372;28;20061;-71
2023/10/18 06:50:46;;;;;;;12.98;11.18;;;;;;;4.92;100.00;100634.34;5004178;28;20190;-71
2023/10/18 06:53:18;;;;;;;12.98;11.07;;;;;;;4.96;100.00;100631.56;5000969;28;20675;-71
2023/10/18 06:55:44;;;;;;;13.05;10.32;;;;;;;5.02;100.00;100638.44;4986743;28;20046;-71
2023/10/18 07:00:51;;;;;;;12.43;10.57;;;;;;;5.08;100.00;100635.59;5003946;28;20069;-71
2023/10/18 07:03:18;;;;;;;11.73;10.52;;;;;;;5.09;100.00;100632.03;4984659;28;20380;-71
2023/10/18 07:05:51;;;;;;;12.32;10.90;;;;;;;5.15;100.00;100626.59;5002887;28;20033;-71
2023/10/18 07:08:19;;;;;;;11.45;9.88;;;;;;;5.20;100.00;100619.38;4981952;28;20057;-72
2023/10/18 07:10:57;;;;;;;12.80;10.55;;;;;;;5.24;100.00;100625.44;5001151;28;20096;-71
2023/10/18 07:13:38;;;;;;;14.05;10.27;;;;;;;5.34;100.00;100629.47;4998518;28;20033;-71
2023/10/18 07:16:12;;;;;;;11.00;9.90;;;;;;;5.40;100.00;100618.75;5002387;28;20416;-71
2023/10/18 07:18:38;;;;;;;12.32;10.65;;;;;;;5.47;100.00;100625.53;4980607;28;20033;-71
2023/10/18 07:21:07;;;;;;;12.32;10.18;;;;;;;5.53;100.00;100620.97;5001736;28;20428;-72
2023/10/18 07:23:37;;;;;;;10.90;9.82;;;;;;;5.57;100.00;100609.41;4999172;28;20054;-71
2023/10/18 07:26:13;;;;;;;13.55;10.57;;;;;;;5.66;100.00;100607.28;5007803;28;20029;-71
2023/10/18 07:28:40;;;;;;;11.85;10.32;;;;;;;5.74;100.00;100601.75;4998092;28;20277;-72
2023/10/18 07:31:09;;;;;;;10.82;9.73;;;;;;;5.85;99.99;100611.94;5003662;28;20061;-72
2023/10/18 07:33:41;;;;;;;10.80;9.70;;;;;;;5.91;100.00;100612.59;4998430;28;20036;-71
2023/10/18 07:36:08;;;;;;;12.73;9.93;;;;;;;5.96;99.34;100609.81;4997209;28;20034;-73
2023/10/18 07:38:37;;;;;;;10.85;9.75;;;;;;;6.03;99.33;100599.91;4997474;28;20041;-72
2023/10/18 07:41:04;;;;;;;11.27;10.13;;;;;;;6.08;99.47;100590.03;4988966;28;20834;-71
2023/10/18 07:43:32;;;;;;;10.52;9.32;;;;;;;6.19;98.15;100591.34;4994593;28;20030;-72
2023/10/18 07:45:58;;;;;;;10.85;9.50;;;;;;;6.30;97.74;100598.88;4981616;28;20109;-72
2023/10/18 07:48:24;;;;;;;11.07;9.80;;;;;;;6.37;97.54;100581.88;4996820;28;20037;-72
2023/10/18 07:50:54;;;;;;;10.27;9.20;;;;;;;6.44;96.00;100574.59;5001520;28;20390;-72
2023/10/18 07:53:22;;;;;;;10.10;9.05;;;;;;;6.51;95.50;100578.69;5001052;28;20109;-72
2023/10/18 07:55:56;;;;;;;10.35;9.25;;;;;;;6.57;95.58;100564.41;5000180;28;20036;-72
2023/10/18 07:58:25;;;;;;;12.10;8.88;;;;;;;6.71;94.81;100565.56;5002057;28;20025;-71
2023/10/18 08:03:32;;;;;;;9.55;8.65;;;;;;;6.95;92.91;100571.69;4995521;28;20046;-70
2023/10/18 08:05:59;;;;;;;10.13;9.13;;;;;;;7.05;93.22;100569.50;4981102;28;20021;-71
2023/10/18 08:08:25;;;;;;;10.20;9.10;;;;;;;7.12;92.06;100556.91;5000231;28;20065;-71
2023/10/18 08:10:55;;;;;;;9.48;8.57;;;;;;;7.17;91.46;100557.56;5000718;28;20029;-71
2023/10/18 08:13:26;;;;;;;9.30;8.38;;;;;;;7.25;91.14;100552.81;4996534;28;20026;-73
2023/10/18 08:15:56;;;;;;;9.38;8.10;;;;;;;7.30;90.64;100553.47;4993175;28;20018;-71
2023/10/18 08:18:39;;;;;;;11.35;8.82;;;;;;;7.36;90.44;100555.03;4999912;28;20034;-71
2023/10/18 08:21:08;;;;;;;10.43;8.40;;;;;;;7.45;89.69;100552.84;4990402;28;20026;-70
2023/10/18 08:23:34;;;;;;;8.73;7.82;;;;;;;7.54;90.41;100548.06;4999582;28;20486;-71
2023/10/18 08:26:04;;;;;;;9.15;8.13;;;;;;;7.53;88.55;100541.94;4978106;28;20037;-69
2023/10/18 08:28:39;;;;;;;10.63;8.00;;;;;;;7.63;89.33;100537.94;4995422;28;20044;-72
2023/10/18 08:34:20;;;;;;;9.98;7.97;;;;;;;7.81;89.01;100540.69;4994959;28;20032;-70
2023/10/18 08:36:45;;;;;;;8.70;7.80;;;;;;;7.89;88.11;100528.84;4995354;28;20026;-71
2023/10/18 08:39:11;;;;;;;8.90;8.00;;;;;;;8.01;88.02;100532.72;5000670;28;20109;-72
2023/10/18 08:41:49;;;;;;;8.55;7.75;;;;;;;8.07;86.64;100527.16;4984099;28;20037;-70
2023/10/18 08:44:24;;;;;;;8.80;7.90;;;;;;;8.22;87.18;100526.44;5007364;28;20033;-69
2023/10/18 08:49:56;;;;;;;8.77;7.53;;;;;;;8.54;86.47;100512.66;4991988;28;20456;-70
2023/10/18 08:52:28;;;;;;;8.93;7.80;;;;;;;8.60;84.27;100515.84;4994404;28;20041;-69
2023/10/18 08:54:55;;;;;;;10.70;8.10;;;;;;;8.61;83.50;100517.59;4989913;28;20034;-70
2023/10/18 08:57:36;;;;;;;9.57;7.75;;;;;;;8.65;83.97;100523.59;4999492;28;20510;-70
2023/10/18 09:02:44;;;;;;;9.10;7.70;;;;;;;8.87;83.36;100513.69;4990214;28;20449;-71
2023/10/18 09:05:10;;;;;;;10.70;7.80;;;;;;;8.89;82.35;100513.59;4995836;28;20273;-70
2023/10/18 09:07:45;;;;;;;8.02;7.30;;;;;;;8.90;82.14;100500.25;4996112;28;20033;-70
2023/10/18 09:10:13;;;;;;;8.55;7.53;;;;;;;9.01;82.60;100499.72;4999971;28;20160;-71
2023/10/18 09:17:56;;;;;;;8.43;7.60;;;;;;;9.16;80.91;100476.84;4998557;28;20447;-71
2023/10/18 09:20:26;;;;;;;10.20;7.47;;;;;;;9.20;81.27;100478.41;4979686;28;20049;-70
2023/10/18 09:23:05;;;;;;;8.75;7.65;;;;;;;9.38;81.50;100477.47;4993858;28;20616;-72
2023/10/18 09:25:50;;;;;;;7.88;6.90;;;;;;;9.53;81.02;100467.84;4993144;28;20060;-70
2023/10/18 09:28:21;;;;;;;8.75;7.50;;;;;;;9.75;79.78;100459.59;4995899;28;20038;-71
2023/10/18 09:30:46;;;;;;;8.18;6.90;;;;;;;9.84;78.82;100467.06;4994100;28;20049;-73
2023/10/18 09:33:13;;;;;;;8.00;7.13;;;;;;;9.94;78.21;100457.63;4992053;28;20025;-71
2023/10/18 09:35:46;;;;;;;7.90;7.10;;;;;;;10.08;76.87;100461.38;4992305;28;20026;-72
2023/10/18 09:38:12;;;;;;;7.78;6.97;;;;;;;10.21;76.86;100449.97;4992165;28;20515;-72
2023/10/18 09:40:38;;;;;;;7.80;7.00;;;;;;;10.36;76.65;100444.75;4993034;28;20510;-71
2023/10/18 09:43:03;;;;;;;10.73;7.43;;;;;;;10.43;76.28;100441.66;4993843;28;20018;-72
2023/10/18 09:45:29;;;;;;;9.05;7.18;;;;;;;10.52;74.75;100434.09;4996860;28;20507;-71
2023/10/18 09:47:59;;;;;;;7.75;7.00;;;;;;;10.63;74.92;100431.69;4998711;28;20053;-72
2023/10/18 09:50:28;;;;;;;8.07;7.22;;;;;;;10.79;74.67;100427.19;5001542;28;20111;-72
2023/10/18 09:52:59;;;;;;;8.90;7.38;;;;;;;11.08;72.45;100424.63;5001139;28;20128;-72
2023/10/18 09:55:26;;;;;;;10.15;7.43;;;;;;;11.55;71.04;100413.75;4999810;28;20323;-73
2023/10/18 09:57:59;;;;;;;7.75;6.97;;;;;;;12.01;68.39;100412.72;4997288;28;20029;-71
2023/10/18 10:00:40;;;;;;;8.80;6.65;;;;;;;12.58;67.23;100416.09;4996568;28;20034;-71
2023/10/18 10:03:10;;;;;;;7.97;6.55;;;;;;;13.32;65.35;100395.94;4997197;28;20476;-71
2023/10/18 10:05:43;;;;;;;7.88;6.90;;;;;;;13.90;62.81;100393.66;4997724;28;20030;-73
2023/10/18 10:08:09;;;;;;;8.57;6.93;;;;;;;13.75;61.16;100378.69;5004055;28;20029;-71
2023/10/18 10:11:03;;;;;;;7.35;6.65;;;;;;;13.48;61.42;100371.69;5002801;28;20299;-71
2023/10/18 10:13:27;;;;;;;7.25;6.45;;;;;;;13.72;60.76;100373.59;5002350;28;20042;-73
2023/10/18 10:15:58;;;;;;;9.23;6.97;;;;;;;14.05;60.36;100372.97;4997541;28;20022;-73
2023/10/18 10:18:34;;;;;;;7.53;6.80;;;;;;;14.08;59.52;100370.06;5003571;28;20044;-72
2023/10/18 10:21:05;;;;;;;7.47;6.50;;;;;;;13.90;61.30;100357.06;4997919;28;20065;-72
2023/10/18 10:23:38;;;;;;;11.60;6.60;;;;;;;14.21;61.21;100362.84;4999438;28;20032;-72
2023/10/18 10:26:21;;;;;;;7.30;6.03;;;;;;;14.67;59.84;100363.00;5003277;28;20177;-71
2023/10/18 10:31:58;;;;;;;8.02;6.75;;;;;;;15.56;57.63;100348.06;4995076;28;20099;-72
2023/10/18 10:34:34;;;;;;;8.18;6.25;;;;;;;15.97;55.27;100340.34;5002650;28;20460;-70
2023/10/18 10:37:23;;;;;;;6.65;6.00;;;;;;;16.21;55.04;100341.03;5002113;28;20100;-72
2023/10/18 10:39:49;;;;;;;6.65;5.72;;;;;;;15.96;53.56;100342.19;5004509;28;20025;-71
2023/10/18 10:42:52;;;;;;;9.98;6.00;;;;;;;15.91;55.49;100326.44;4993836;28;20510;-70
2023/10/18 10:45:43;;;;;;;7.35;5.72;;;;;;;15.61;57.27;100327.06;5000270;28;20040;-71
2023/10/18 10:48:15;;;;;;;;;;;;;;;16.07;58.22;100315.31;4981854;28;20046;-73
2023/10/18 10:50:51;;;;;;;7.28;6.18;;;;;;;15.40;57.17;100305.50;4983478;28;20066;-71
2023/10/18 10:53:29;;;;;;;9.32;6.60;;;;;;;15.12;57.79;100314.00;4983905;28;20101;-73
2023/10/18 10:55:55;;;;;;;7.03;6.15;;;;;;;14.74;57.53;100299.06;4988286;28;20045;-71
2023/10/18 10:58:22;;;;;;;8.77;6.70;;;;;;;14.33;58.18;100303.03;4983954;28;20030;-71
2023/10/18 11:01:07;;;;;;;6.97;6.28;;;;;;;14.28;61.73;100291.81;4978328;28;20262;-72
2023/10/18 11:03:55;;;;;;;7.78;6.97;;;;;;;14.19;60.96;100277.31;4976491;28;20453;-72
2023/10/18 11:06:24;;;;;;;8.48;6.47;;;;;;;14.65;59.79;100278.38;4984842;28;20030;-72
2023/10/18 11:08:56;;;;;;;9.68;7.15;;;;;;;15.29;57.52;100273.31;4982830;28;20113;-71
2023/10/18 11:11:22;;;;;;;7.70;6.45;;;;;;;15.04;56.63;100262.81;4984699;28;20034;-72
2023/10/18 11:13:50;;;;;;;10.80;7.35;;;;;;;15.20;56.77;100266.00;4979718;28;20034;-71
2023/10/18 11:16:17;;;;;;;7.07;6.40;;;;;;;16.16;55.66;100262.69;4982425;28;20034;-72
2023/10/18 11:18:48;;;;;;;7.65;6.30;;;;;;;17.35;52.18;100249.78;4984718;28;20034;-72
2023/10/18 11:21:21;;;;;;;7.65;6.30;;;;;;;18.03;49.47;100265.25;4982609;28;20079;-72
2023/10/18 11:23:57;;;;;;;9.02;6.65;;;;;;;17.89;50.33;100248.53;4981603;28;20034;-71
2023/10/18 11:26:27;;;;;;;8.70;6.03;;;;;;;17.90;49.23;100252.06;4982377;28;20064;-74
2023/10/18 11:28:56;;;;;;;6.47;5.50;;;;;;;17.87;49.22;100236.19;4982266;28;20030;-71
2023/10/18 11:31:26;;;;;;;6.30;5.70;;;;;;;18.36;48.13;100229.81;4981810;28;20579;-73
2023/10/18 11:33:55;;;;;;;8.18;5.55;;;;;;;18.91;47.67;100232.72;4980831;28;20349;-72
2023/10/18 11:36:21;;;;;;;6.20;5.60;;;;;;;19.15;46.33;100228.69;4977952;28;20201;-73
2023/10/18 11:41:37;;;;;;;6.43;5.80;;;;;;;19.37;45.68;100214.78;4978220;28;20574;-73
2023/10/18 11:44:07;;;;;;;9.23;5.90;;;;;;;19.19;45.33;100210.31;4983382;28;20115;-71
2023/10/18 11:46:58;;;;;;;6.80;6.10;;;;;;;18.95;46.44;100194.69;4986432;28;20046;-72
2023/10/18 11:49:35;;;;;;;6.93;5.75;;;;;;;18.78;46.60;100183.66;5001261;28;20033;-71
2023/10/18 11:52:01;;;;;;;7.85;5.80;;;;;;;19.18;45.51;100182.50;4999385;28;20026;-74
2023/10/18 11:54:34;;;;;;;7.93;5.65;;;;;;;19.39;46.00;100182.25;5000862;28;20861;-72
2023/10/18 11:57:06;;;;;;;8.57;5.85;;;;;;;19.25;44.37;100174.69;5000951;28;20076;-72
2023/10/18 11:59:51;;;;;;;7.22;5.90;;;;;;;19.21;46.48;100167.88;5003090;28;20038;-72
2023/10/18 12:02:16;;;;;;;9.18;6.22;;;;;;;18.82;44.76;100155.41;4997626;28;20061;-72
2023/10/18 12:04:44;;;;;;;7.38;5.63;;;;;;;18.74;44.87;100159.84;5002821;28;20033;-71
2023/10/18 12:07:13;;;;;;;6.03;5.45;;;;;;;18.68;46.00;100153.16;5002127;28;20041;-72
2023/10/18 12:09:57;;;;;;;7.90;5.90;;;;;;;18.50;45.70;100157.63;4999436;28;20079;-71
2023/10/18 12:12:24;;;;;;;6.38;5.60;;;;;;;18.19;46.59;100149.75;4984692;28;20386;-71
2023/10/18 12:14:50;;;;;;;6.45;5.35;;;;;;;18.08;47.50;100148.03;5003759;28;20025;-71
2023/10/18 12:17:15;;;;;;;6.28;5.22;;;;;;;17.74;48.10;100142.25;5002837;28;20450;-71
2023/10/18 12:19:42;;;;;;;5.93;5.38;;;;;;;17.29;48.74;100121.19;4986356;28;20037;-72
2023/10/18 12:22:09;;;;;;;8.45;6.03;;;;;;;16.80;49.24;100116.66;5000443;28;20057;-73
2023/10/18 12:24:36;;;;;;;7.10;5.57;;;;;;;16.36;50.30;100108.81;5001078;28;20566;-71